sensor_id;sensor_type;location;lat;lon;timestamp;P1;durP1;ratioP1;P2;durP2;ratioP2
72801;SDS011;61891;55.818;37.084;2023-06-14T00:00:43;10.18;;;5.97;;
72801;SDS011;61891;55.818;37.084;2023-06-14T00:03:09;7.45;;;4.68;;
72801;SDS011;61891;55.818;37.084;2023-06-14T00:05:40;9.65;;;5.95;;
72801;SDS011;61891;55.818;37.084;2023-06-14T00:08:11;10.70;;;6.00;;
72801;SDS011;61891;55.818;37.084;2023-06-14T00:10:36;8.55;;;6.15;;
72801;SDS011;61891;55.818;37.084;2023-06-14T00:13:04;7.22;;;5.90;;
72801;SDS011;61891;55.818;37.084;2023-06-14T00:15:32;10.73;;;5.88;;
72801;SDS011;61891;55.818;37.084;2023-06-14T00:17:58;9.23;;;5.55;;
72801;SDS011;61891;55.818;37.084;2023-06-14T00:20:27;8.60;;;5.57;;
72801;SDS011;61891;55.818;37.084;2023-06-14T00:22:54;9.60;;;6.05;;
72801;SDS011;61891;55.818;37.084;2023-06-14T00:25:22;10.30;;;6.05;;
72801;SDS011;61891;55.818;37.084;2023-06-14T00:27:52;8.40;;;5.32;;
72801;SDS011;61891;55.818;37.084;2023-06-14T00:30:18;10.90;;;5.95;;
72801;SDS011;61891;55.818;37.084;2023-06-14T00:32:44;8.43;;;5.00;;
72801;SDS011;61891;55.818;37.084;2023-06-14T00:35:10;7.78;;;5.07;;
72801;SDS011;61891;55.818;37.084;2023-06-14T00:37:37;8.23;;;5.75;;
72801;SDS011;61891;55.818;37.084;2023-06-14T00:40:03;7.95;;;6.00;;
72801;SDS011;61891;55.818;37.084;2023-06-14T00:42:30;7.75;;;4.88;;
72801;SDS011;61891;55.818;37.084;2023-06-14T00:44:56;8.13;;;5.03;;
72801;SDS011;61891;55.818;37.084;2023-06-14T00:47:23;7.88;;;5.43;;
72801;SDS011;61891;55.818;37.084;2023-06-14T00:49:49;8.23;;;5.45;;
72801;SDS011;61891;55.818;37.084;2023-06-14T00:52:18;10.35;;;6.30;;
72801;SDS011;61891;55.818;37.084;2023-06-14T00:54:44;7.25;;;5.43;;
72801;SDS011;61891;55.818;37.084;2023-06-14T00:57:10;10.55;;;6.63;;
72801;SDS011;61891;55.818;37.084;2023-06-14T01:03:11;12.00;;;6.13;;
72801;SDS011;61891;55.818;37.084;2023-06-14T01:05:38;8.98;;;5.72;;
72801;SDS011;61891;55.818;37.084;2023-06-14T01:11:10;7.72;;;5.53;;
72801;SDS011;61891;55.818;37.084;2023-06-14T01:13:43;8.57;;;5.95;;
72801;SDS011;61891;55.818;37.084;2023-06-14T01:16:11;7.65;;;5.60;;
72801;SDS011;61891;55.818;37.084;2023-06-14T01:18:37;9.55;;;6.15;;
72801;SDS011;61891;55.818;37.084;2023-06-14T01:21:04;8.88;;;6.10;;
72801;SDS011;61891;55.818;37.084;2023-06-14T01:23:31;9.60;;;6.40;;
72801;SDS011;61891;55.818;37.084;2023-06-14T01:26:00;10.02;;;5.72;;
72801;SDS011;61891;55.818;37.084;2023-06-14T01:28:30;8.38;;;5.95;;
72801;SDS011;61891;55.818;37.084;2023-06-14T01:30:59;10.55;;;5.90;;
72801;SDS011;61891;55.818;37.084;2023-06-14T01:33:32;10.48;;;6.13;;
72801;SDS011;61891;55.818;37.084;2023-06-14T01:35:58;8.32;;;6.22;;
72801;SDS011;61891;55.818;37.084;2023-06-14T01:38:29;9.02;;;5.70;;
72801;SDS011;61891;55.818;37.084;2023-06-14T01:40:57;12.95;;;6.07;;
72801;SDS011;61891;55.818;37.084;2023-06-14T01:43:25;8.30;;;5.95;;
72801;SDS011;61891;55.818;37.084;2023-06-14T01:45:52;10.35;;;5.43;;
72801;SDS011;61891;55.818;37.084;2023-06-14T01:48:20;7.03;;;5.65;;
72801;SDS011;61891;55.818;37.084;2023-06-14T01:50:47;10.38;;;5.75;;
72801;SDS011;61891;55.818;37.084;2023-06-14T01:53:14;10.23;;;6.15;;
72801;SDS011;61891;55.818;37.084;2023-06-14T01:55:41;9.57;;;5.88;;
72801;SDS011;61891;55.818;37.084;2023-06-14T01:58:08;7.78;;;5.82;;
72801;SDS011;61891;55.818;37.084;2023-06-14T02:00:35;10.10;;;5.90;;
72801;SDS011;61891;55.818;37.084;2023-06-14T02:03:01;9.05;;;5.97;;
72801;SDS011;61891;55.818;37.084;2023-06-14T02:05:29;7.63;;;5.68;;
72801;SDS011;61891;55.818;37.084;2023-06-14T02:07:56;8.25;;;6.35;;
72801;SDS011;61891;55.818;37.084;2023-06-14T02:10:21;12.38;;;6.85;;
72801;SDS011;61891;55.818;37.084;2023-06-14T02:12:47;8.55;;;6.50;;
72801;SDS011;61891;55.818;37.084;2023-06-14T02:15:13;8.93;;;5.97;;
72801;SDS011;61891;55.818;37.084;2023-06-14T02:17:45;8.75;;;6.00;;
72801;SDS011;61891;55.818;37.084;2023-06-14T02:20:16;9.43;;;6.22;;
72801;SDS011;61891;55.818;37.084;2023-06-14T02:22:42;10.32;;;6.13;;
72801;SDS011;61891;55.818;37.084;2023-06-14T02:25:07;8.02;;;6.43;;
72801;SDS011;61891;55.818;37.084;2023-06-14T02:27:33;9.75;;;5.97;;
72801;SDS011;61891;55.818;37.084;2023-06-14T02:30:00;6.72;;;5.75;;
72801;SDS011;61891;55.818;37.084;2023-06-14T02:34:52;8.32;;;4.90;;
72801;SDS011;61891;55.818;37.084;2023-06-14T02:37:19;8.05;;;5.80;;
72801;SDS011;61891;55.818;37.084;2023-06-14T02:39:45;8.85;;;4.82;;
72801;SDS011;61891;55.818;37.084;2023-06-14T02:42:11;8.15;;;6.00;;
72801;SDS011;61891;55.818;37.084;2023-06-14T02:44:37;8.80;;;6.43;;
72801;SDS011;61891;55.818;37.084;2023-06-14T02:47:03;10.13;;;6.15;;
72801;SDS011;61891;55.818;37.084;2023-06-14T02:49:30;9.50;;;5.28;;
72801;SDS011;61891;55.818;37.084;2023-06-14T02:51:56;9.63;;;5.57;;
72801;SDS011;61891;55.818;37.084;2023-06-14T02:54:22;10.82;;;6.13;;
72801;SDS011;61891;55.818;37.084;2023-06-14T02:56:48;8.45;;;5.57;;
72801;SDS011;61891;55.818;37.084;2023-06-14T02:59:14;7.03;;;5.38;;
72801;SDS011;61891;55.818;37.084;2023-06-14T03:01:41;9.13;;;5.72;;
72801;SDS011;61891;55.818;37.084;2023-06-14T03:04:10;7.43;;;5.70;;
72801;SDS011;61891;55.818;37.084;2023-06-14T03:06:39;7.65;;;5.43;;
72801;SDS011;61891;55.818;37.084;2023-06-14T03:09:05;8.30;;;5.25;;
72801;SDS011;61891;55.818;37.084;2023-06-14T03:11:34;7.55;;;5.07;;
72801;SDS011;61891;55.818;37.084;2023-06-14T03:14:01;8.38;;;4.65;;
72801;SDS011;61891;55.818;37.084;2023-06-14T03:16:29;8.32;;;5.63;;
72801;SDS011;61891;55.818;37.084;2023-06-14T03:18:55;8.35;;;5.35;;
72801;SDS011;61891;55.818;37.084;2023-06-14T03:21:24;8.00;;;5.43;;
72801;SDS011;61891;55.818;37.084;2023-06-14T03:23:51;8.07;;;4.72;;
72801;SDS011;61891;55.818;37.084;2023-06-14T03:26:18;6.20;;;4.15;;
72801;SDS011;61891;55.818;37.084;2023-06-14T03:28:45;6.72;;;5.05;;
72801;SDS011;61891;55.818;37.084;2023-06-14T03:31:13;8.35;;;5.95;;
72801;SDS011;61891;55.818;37.084;2023-06-14T03:33:40;10.43;;;6.00;;
72801;SDS011;61891;55.818;37.084;2023-06-14T03:36:07;12.48;;;6.13;;
72801;SDS011;61891;55.818;37.084;2023-06-14T03:38:32;8.45;;;4.93;;
72801;SDS011;61891;55.818;37.084;2023-06-14T03:40:59;8.73;;;4.85;;
72801;SDS011;61891;55.818;37.084;2023-06-14T03:43:24;7.93;;;5.00;;
72801;SDS011;61891;55.818;37.084;2023-06-14T03:48:17;6.78;;;4.03;;
72801;SDS011;61891;55.818;37.084;2023-06-14T03:50:43;8.02;;;5.50;;
72801;SDS011;61891;55.818;37.084;2023-06-14T03:53:09;9.43;;;5.00;;
72801;SDS011;61891;55.818;37.084;2023-06-14T03:55:39;7.75;;;4.95;;
72801;SDS011;61891;55.818;37.084;2023-06-14T03:58:06;7.88;;;4.88;;
72801;SDS011;61891;55.818;37.084;2023-06-14T04:00:32;6.15;;;4.78;;
72801;SDS011;61891;55.818;37.084;2023-06-14T04:02:57;8.02;;;5.20;;
72801;SDS011;61891;55.818;37.084;2023-06-14T04:05:24;7.03;;;4.63;;
72801;SDS011;61891;55.818;37.084;2023-06-14T04:07:53;8.77;;;4.60;;
72801;SDS011;61891;55.818;37.084;2023-06-14T04:10:21;7.78;;;5.15;;
72801;SDS011;61891;55.818;37.084;2023-06-14T04:12:47;8.82;;;5.38;;
72801;SDS011;61891;55.818;37.084;2023-06-14T04:15:12;6.03;;;3.75;;
72801;SDS011;61891;55.818;37.084;2023-06-14T04:17:39;7.05;;;3.80;;
72801;SDS011;61891;55.818;37.084;2023-06-14T04:20:06;6.20;;;4.03;;
72801;SDS011;61891;55.818;37.084;2023-06-14T04:22:34;6.45;;;4.15;;
72801;SDS011;61891;55.818;37.084;2023-06-14T04:25:02;5.47;;;3.95;;
72801;SDS011;61891;55.818;37.084;2023-06-14T04:27:32;9.40;;;4.85;;
72801;SDS011;61891;55.818;37.084;2023-06-14T04:30:02;7.30;;;4.25;;
72801;SDS011;61891;55.818;37.084;2023-06-14T04:32:35;7.25;;;3.70;;
72801;SDS011;61891;55.818;37.084;2023-06-14T04:35:05;7.55;;;3.63;;
72801;SDS011;61891;55.818;37.084;2023-06-14T04:37:33;6.03;;;3.60;;
72801;SDS011;61891;55.818;37.084;2023-06-14T04:40:00;5.47;;;3.47;;
72801;SDS011;61891;55.818;37.084;2023-06-14T04:42:26;7.47;;;3.63;;
72801;SDS011;61891;55.818;37.084;2023-06-14T04:44:56;5.32;;;3.40;;
72801;SDS011;61891;55.818;37.084;2023-06-14T04:49:50;6.88;;;4.10;;
72801;SDS011;61891;55.818;37.084;2023-06-14T04:52:20;5.28;;;3.88;;
72801;SDS011;61891;55.818;37.084;2023-06-14T04:54:46;8.57;;;3.70;;
72801;SDS011;61891;55.818;37.084;2023-06-14T04:57:16;5.78;;;3.30;;
72801;SDS011;61891;55.818;37.084;2023-06-14T04:59:44;4.50;;;4.10;;
72801;SDS011;61891;55.818;37.084;2023-06-14T05:02:10;6.95;;;3.83;;
72801;SDS011;61891;55.818;37.084;2023-06-14T05:04:37;6.63;;;4.10;;
72801;SDS011;61891;55.818;37.084;2023-06-14T05:07:09;6.10;;;3.40;;
72801;SDS011;61891;55.818;37.084;2023-06-14T05:09:36;7.43;;;4.00;;
72801;SDS011;61891;55.818;37.084;2023-06-14T05:12:02;5.05;;;3.33;;
72801;SDS011;61891;55.818;37.084;2023-06-14T05:14:28;5.93;;;3.00;;
72801;SDS011;61891;55.818;37.084;2023-06-14T05:16:56;6.35;;;3.22;;
72801;SDS011;61891;55.818;37.084;2023-06-14T05:19:22;6.85;;;4.22;;
72801;SDS011;61891;55.818;37.084;2023-06-14T05:24:14;7.28;;;3.15;;
72801;SDS011;61891;55.818;37.084;2023-06-14T05:26:40;6.43;;;2.95;;
72801;SDS011;61891;55.818;37.084;2023-06-14T05:31:32;6.03;;;3.10;;
72801;SDS011;61891;55.818;37.084;2023-06-14T05:33:58;5.57;;;3.42;;
72801;SDS011;61891;55.818;37.084;2023-06-14T05:36:23;8.27;;;3.40;;
72801;SDS011;61891;55.818;37.084;2023-06-14T05:38:50;7.80;;;3.50;;
72801;SDS011;61891;55.818;37.084;2023-06-14T05:41:16;5.25;;;3.22;;
72801;SDS011;61891;55.818;37.084;2023-06-14T05:46:07;4.95;;;4.03;;
72801;SDS011;61891;55.818;37.084;2023-06-14T05:54:39;4.95;;;2.90;;
72801;SDS011;61891;55.818;37.084;2023-06-14T05:59:31;6.38;;;3.20;;
72801;SDS011;61891;55.818;37.084;2023-06-14T06:01:58;5.90;;;2.97;;
72801;SDS011;61891;55.818;37.084;2023-06-14T06:06:49;5.78;;;2.88;;
72801;SDS011;61891;55.818;37.084;2023-06-14T06:09:15;5.47;;;3.30;;
72801;SDS011;61891;55.818;37.084;2023-06-14T06:14:06;6.18;;;2.80;;
72801;SDS011;61891;55.818;37.084;2023-06-14T06:18:58;6.28;;;4.00;;
72801;SDS011;61891;55.818;37.084;2023-06-14T06:21:24;6.70;;;2.97;;
72801;SDS011;61891;55.818;37.084;2023-06-14T06:23:50;8.25;;;3.90;;
72801;SDS011;61891;55.818;37.084;2023-06-14T06:28:41;5.72;;;2.75;;
72801;SDS011;61891;55.818;37.084;2023-06-14T06:31:07;4.75;;;2.50;;
72801;SDS011;61891;55.818;37.084;2023-06-14T06:33:33;5.68;;;2.92;;
72801;SDS011;61891;55.818;37.084;2023-06-14T06:35:59;4.95;;;2.47;;
72801;SDS011;61891;55.818;37.084;2023-06-14T06:38:24;5.70;;;2.67;;
72801;SDS011;61891;55.818;37.084;2023-06-14T06:43:16;4.38;;;2.70;;
72801;SDS011;61891;55.818;37.084;2023-06-14T06:45:46;3.92;;;2.40;;
72801;SDS011;61891;55.818;37.084;2023-06-14T06:48:11;4.32;;;2.22;;
72801;SDS011;61891;55.818;37.084;2023-06-14T06:50:37;3.90;;;2.28;;
72801;SDS011;61891;55.818;37.084;2023-06-14T06:53:03;5.78;;;2.50;;
72801;SDS011;61891;55.818;37.084;2023-06-14T06:55:29;3.85;;;2.85;;
72801;SDS011;61891;55.818;37.084;2023-06-14T06:57:55;4.05;;;2.33;;
72801;SDS011;61891;55.818;37.084;2023-06-14T07:00:21;3.35;;;2.10;;
72801;SDS011;61891;55.818;37.084;2023-06-14T07:02:46;3.10;;;2.15;;
72801;SDS011;61891;55.818;37.084;2023-06-14T07:05:12;4.15;;;2.40;;
72801;SDS011;61891;55.818;37.084;2023-06-14T07:07:38;2.75;;;2.05;;
72801;SDS011;61891;55.818;37.084;2023-06-14T07:10:04;4.45;;;2.40;;
72801;SDS011;61891;55.818;37.084;2023-06-14T07:12:30;3.80;;;2.20;;
72801;SDS011;61891;55.818;37.084;2023-06-14T07:14:59;6.57;;;2.50;;
72801;SDS011;61891;55.818;37.084;2023-06-14T07:17:27;4.13;;;2.40;;
72801;SDS011;61891;55.818;37.084;2023-06-14T07:19:53;4.68;;;2.17;;
72801;SDS011;61891;55.818;37.084;2023-06-14T07:22:19;4.28;;;2.70;;
72801;SDS011;61891;55.818;37.084;2023-06-14T07:24:45;5.18;;;2.50;;
72801;SDS011;61891;55.818;37.084;2023-06-14T07:27:10;3.67;;;2.20;;
72801;SDS011;61891;55.818;37.084;2023-06-14T07:29:38;4.05;;;2.40;;
72801;SDS011;61891;55.818;37.084;2023-06-14T07:32:04;4.90;;;1.90;;
72801;SDS011;61891;55.818;37.084;2023-06-14T07:34:30;4.72;;;2.40;;
72801;SDS011;61891;55.818;37.084;2023-06-14T07:36:56;4.13;;;2.40;;
72801;SDS011;61891;55.818;37.084;2023-06-14T07:39:22;4.30;;;2.47;;
72801;SDS011;61891;55.818;37.084;2023-06-14T07:41:48;4.93;;;2.83;;
72801;SDS011;61891;55.818;37.084;2023-06-14T07:44:15;5.95;;;2.85;;
72801;SDS011;61891;55.818;37.084;2023-06-14T07:46:41;5.03;;;2.60;;
72801;SDS011;61891;55.818;37.084;2023-06-14T07:49:07;6.63;;;2.83;;
72801;SDS011;61891;55.818;37.084;2023-06-14T07:51:33;5.05;;;2.55;;
72801;SDS011;61891;55.818;37.084;2023-06-14T07:54:01;6.30;;;2.72;;
72801;SDS011;61891;55.818;37.084;2023-06-14T07:56:28;5.00;;;2.78;;
72801;SDS011;61891;55.818;37.084;2023-06-14T07:58:54;5.65;;;2.35;;
72801;SDS011;61891;55.818;37.084;2023-06-14T08:01:20;5.22;;;2.60;;
72801;SDS011;61891;55.818;37.084;2023-06-14T08:03:45;5.28;;;2.92;;
72801;SDS011;61891;55.818;37.084;2023-06-14T08:06:11;5.15;;;2.90;;
72801;SDS011;61891;55.818;37.084;2023-06-14T08:08:37;5.75;;;2.40;;
72801;SDS011;61891;55.818;37.084;2023-06-14T08:11:02;5.55;;;2.60;;
72801;SDS011;61891;55.818;37.084;2023-06-14T08:13:28;3.95;;;2.70;;
72801;SDS011;61891;55.818;37.084;2023-06-14T08:15:54;6.20;;;2.58;;
72801;SDS011;61891;55.818;37.084;2023-06-14T08:18:22;5.50;;;2.80;;
72801;SDS011;61891;55.818;37.084;2023-06-14T08:20:48;4.28;;;3.55;;
72801;SDS011;61891;55.818;37.084;2023-06-14T08:23:13;4.60;;;2.63;;
72801;SDS011;61891;55.818;37.084;2023-06-14T08:25:39;5.05;;;2.95;;
72801;SDS011;61891;55.818;37.084;2023-06-14T08:28:05;4.68;;;3.00;;
72801;SDS011;61891;55.818;37.084;2023-06-14T08:30:31;4.55;;;2.63;;
72801;SDS011;61891;55.818;37.084;2023-06-14T08:32:57;3.95;;;2.90;;
72801;SDS011;61891;55.818;37.084;2023-06-14T08:35:22;6.35;;;2.67;;
72801;SDS011;61891;55.818;37.084;2023-06-14T08:37:49;6.25;;;2.88;;
72801;SDS011;61891;55.818;37.084;2023-06-14T08:40:18;4.60;;;2.65;;
72801;SDS011;61891;55.818;37.084;2023-06-14T08:42:52;6.28;;;3.40;;
72801;SDS011;61891;55.818;37.084;2023-06-14T08:45:19;4.07;;;2.65;;
72801;SDS011;61891;55.818;37.084;2023-06-14T08:47:49;3.78;;;2.70;;
72801;SDS011;61891;55.818;37.084;2023-06-14T08:50:23;4.07;;;2.90;;
72801;SDS011;61891;55.818;37.084;2023-06-14T08:52:53;4.00;;;2.78;;
72801;SDS011;61891;55.818;37.084;2023-06-14T08:55:21;3.67;;;2.92;;
72801;SDS011;61891;55.818;37.084;2023-06-14T08:57:51;5.10;;;2.80;;
72801;SDS011;61891;55.818;37.084;2023-06-14T09:00:20;4.10;;;2.88;;
72801;SDS011;61891;55.818;37.084;2023-06-14T09:02:46;4.75;;;3.00;;
72801;SDS011;61891;55.818;37.084;2023-06-14T09:05:12;5.95;;;2.95;;
72801;SDS011;61891;55.818;37.084;2023-06-14T09:07:42;6.70;;;3.33;;
72801;SDS011;61891;55.818;37.084;2023-06-14T09:10:09;8.23;;;3.10;;
72801;SDS011;61891;55.818;37.084;2023-06-14T09:12:36;43.03;;;5.50;;
72801;SDS011;61891;55.818;37.084;2023-06-14T09:15:02;7.75;;;3.65;;
72801;SDS011;61891;55.818;37.084;2023-06-14T09:17:35;8.45;;;3.50;;
72801;SDS011;61891;55.818;37.084;2023-06-14T09:20:04;4.07;;;3.05;;
72801;SDS011;61891;55.818;37.084;2023-06-14T09:22:49;7.13;;;3.80;;
72801;SDS011;61891;55.818;37.084;2023-06-14T09:25:14;4.32;;;3.08;;
72801;SDS011;61891;55.818;37.084;2023-06-14T09:27:40;7.93;;;3.40;;
72801;SDS011;61891;55.818;37.084;2023-06-14T09:30:08;6.88;;;3.88;;
72801;SDS011;61891;55.818;37.084;2023-06-14T09:32:44;7.70;;;3.63;;
72801;SDS011;61891;55.818;37.084;2023-06-14T09:35:10;7.68;;;4.50;;
72801;SDS011;61891;55.818;37.084;2023-06-14T09:37:36;5.85;;;4.22;;
72801;SDS011;61891;55.818;37.084;2023-06-14T09:40:05;5.20;;;4.32;;
72801;SDS011;61891;55.818;37.084;2023-06-14T09:42:32;4.95;;;3.83;;
72801;SDS011;61891;55.818;37.084;2023-06-14T09:45:01;6.35;;;3.42;;
72801;SDS011;61891;55.818;37.084;2023-06-14T09:47:28;6.13;;;4.15;;
72801;SDS011;61891;55.818;37.084;2023-06-14T09:49:54;6.32;;;3.20;;
72801;SDS011;61891;55.818;37.084;2023-06-14T09:52:21;5.15;;;3.53;;
72801;SDS011;61891;55.818;37.084;2023-06-14T09:54:48;4.53;;;3.22;;
72801;SDS011;61891;55.818;37.084;2023-06-14T09:57:15;10.73;;;4.22;;
72801;SDS011;61891;55.818;37.084;2023-06-14T09:59:56;6.22;;;3.22;;
72801;SDS011;61891;55.818;37.084;2023-06-14T10:02:29;5.38;;;3.60;;
72801;SDS011;61891;55.818;37.084;2023-06-14T10:05:06;5.93;;;3.33;;
72801;SDS011;61891;55.818;37.084;2023-06-14T10:10:07;6.78;;;4.55;;
72801;SDS011;61891;55.818;37.084;2023-06-14T10:12:34;4.20;;;3.80;;
72801;SDS011;61891;55.818;37.084;2023-06-14T10:15:00;5.57;;;3.13;;
72801;SDS011;61891;55.818;37.084;2023-06-14T10:23:17;5.57;;;3.38;;
72801;SDS011;61891;55.818;37.084;2023-06-14T10:25:49;6.07;;;3.22;;
72801;SDS011;61891;55.818;37.084;2023-06-14T10:28:17;5.03;;;3.25;;
72801;SDS011;61891;55.818;37.084;2023-06-14T10:31:06;7.25;;;3.35;;
72801;SDS011;61891;55.818;37.084;2023-06-14T10:33:35;8.05;;;4.03;;
72801;SDS011;61891;55.818;37.084;2023-06-14T10:39:00;4.38;;;3.40;;
72801;SDS011;61891;55.818;37.084;2023-06-14T10:41:29;5.00;;;3.17;;
72801;SDS011;61891;55.818;37.084;2023-06-14T10:46:39;6.85;;;3.35;;
72801;SDS011;61891;55.818;37.084;2023-06-14T10:49:10;10.68;;;3.72;;
72801;SDS011;61891;55.818;37.084;2023-06-14T10:51:42;5.35;;;3.42;;
72801;SDS011;61891;55.818;37.084;2023-06-14T10:54:14;3.85;;;3.45;;
72801;SDS011;61891;55.818;37.084;2023-06-14T10:56:47;3.95;;;3.15;;
72801;SDS011;61891;55.818;37.084;2023-06-14T10:59:17;5.47;;;3.60;;
72801;SDS011;61891;55.818;37.084;2023-06-14T11:04:23;4.65;;;3.50;;
72801;SDS011;61891;55.818;37.084;2023-06-14T11:13:06;3.55;;;3.25;;
72801;SDS011;61891;55.818;37.084;2023-06-14T11:15:34;5.13;;;3.38;;
72801;SDS011;61891;55.818;37.084;2023-06-14T11:18:04;5.30;;;3.75;;
72801;SDS011;61891;55.818;37.084;2023-06-14T11:20:32;4.78;;;3.15;;
72801;SDS011;61891;55.818;37.084;2023-06-14T11:22:59;3.53;;;3.22;;
72801;SDS011;61891;55.818;37.084;2023-06-14T11:25:25;4.55;;;3.38;;
72801;SDS011;61891;55.818;37.084;2023-06-14T11:27:53;5.03;;;3.33;;
72801;SDS011;61891;55.818;37.084;2023-06-14T11:30:20;5.65;;;3.53;;
72801;SDS011;61891;55.818;37.084;2023-06-14T11:32:47;4.10;;;3.10;;
72801;SDS011;61891;55.818;37.084;2023-06-14T11:35:14;4.80;;;3.30;;
72801;SDS011;61891;55.818;37.084;2023-06-14T11:37:40;4.00;;;3.00;;
72801;SDS011;61891;55.818;37.084;2023-06-14T11:40:07;3.42;;;3.13;;
72801;SDS011;61891;55.818;37.084;2023-06-14T11:42:35;5.13;;;2.97;;
72801;SDS011;61891;55.818;37.084;2023-06-14T11:45:01;4.55;;;3.78;;
72801;SDS011;61891;55.818;37.084;2023-06-14T11:47:34;4.63;;;3.28;;
72801;SDS011;61891;55.818;37.084;2023-06-14T11:50:02;4.13;;;3.70;;
72801;SDS011;61891;55.818;37.084;2023-06-14T11:52:29;5.90;;;3.65;;
72801;SDS011;61891;55.818;37.084;2023-06-14T11:54:55;4.47;;;3.72;;
72801;SDS011;61891;55.818;37.084;2023-06-14T11:57:21;5.07;;;3.80;;
72801;SDS011;61891;55.818;37.084;2023-06-14T11:59:48;6.50;;;4.30;;
72801;SDS011;61891;55.818;37.084;2023-06-14T12:02:17;4.00;;;3.60;;
72801;SDS011;61891;55.818;37.084;2023-06-14T12:04:44;4.20;;;3.28;;
72801;SDS011;61891;55.818;37.084;2023-06-14T12:07:14;4.72;;;4.25;;
72801;SDS011;61891;55.818;37.084;2023-06-14T12:12:17;6.15;;;4.18;;
72801;SDS011;61891;55.818;37.084;2023-06-14T12:14:42;4.43;;;4.03;;
72801;SDS011;61891;55.818;37.084;2023-06-14T12:17:08;4.90;;;4.13;;
72801;SDS011;61891;55.818;37.084;2023-06-14T12:19:42;4.85;;;3.58;;
72801;SDS011;61891;55.818;37.084;2023-06-14T12:22:09;5.55;;;4.65;;
72801;SDS011;61891;55.818;37.084;2023-06-14T12:24:36;5.85;;;4.32;;
72801;SDS011;61891;55.818;37.084;2023-06-14T12:27:07;4.03;;;3.63;;
72801;SDS011;61891;55.818;37.084;2023-06-14T12:29:33;5.68;;;4.20;;
72801;SDS011;61891;55.818;37.084;2023-06-14T12:31:59;4.65;;;3.97;;
72801;SDS011;61891;55.818;37.084;2023-06-14T12:34:27;4.32;;;3.72;;
72801;SDS011;61891;55.818;37.084;2023-06-14T12:36:53;4.38;;;3.78;;
72801;SDS011;61891;55.818;37.084;2023-06-14T12:39:19;6.75;;;3.65;;
72801;SDS011;61891;55.818;37.084;2023-06-14T12:41:49;6.75;;;3.90;;
72801;SDS011;61891;55.818;37.084;2023-06-14T12:44:15;5.55;;;3.72;;
72801;SDS011;61891;55.818;37.084;2023-06-14T12:46:41;4.20;;;3.90;;
72801;SDS011;61891;55.818;37.084;2023-06-14T12:49:08;6.45;;;4.20;;
72801;SDS011;61891;55.818;37.084;2023-06-14T12:51:35;5.25;;;4.75;;
72801;SDS011;61891;55.818;37.084;2023-06-14T12:54:01;4.30;;;4.00;;
72801;SDS011;61891;55.818;37.084;2023-06-14T12:56:26;4.55;;;3.97;;
72801;SDS011;61891;55.818;37.084;2023-06-14T12:58:52;3.95;;;3.55;;
72801;SDS011;61891;55.818;37.084;2023-06-14T13:01:18;4.15;;;3.70;;
72801;SDS011;61891;55.818;37.084;2023-06-14T13:03:45;3.92;;;3.63;;
72801;SDS011;61891;55.818;37.084;2023-06-14T13:06:11;4.60;;;3.45;;
72801;SDS011;61891;55.818;37.084;2023-06-14T13:08:37;5.63;;;4.03;;
72801;SDS011;61891;55.818;37.084;2023-06-14T13:11:03;4.00;;;3.60;;
72801;SDS011;61891;55.818;37.084;2023-06-14T13:13:28;6.13;;;4.63;;
72801;SDS011;61891;55.818;37.084;2023-06-14T13:15:54;4.45;;;3.67;;
72801;SDS011;61891;55.818;37.084;2023-06-14T13:18:20;3.95;;;3.63;;
72801;SDS011;61891;55.818;37.084;2023-06-14T13:20:46;4.22;;;3.53;;
72801;SDS011;61891;55.818;37.084;2023-06-14T13:23:13;7.07;;;4.85;;
72801;SDS011;61891;55.818;37.084;2023-06-14T13:25:39;4.47;;;4.10;;
72801;SDS011;61891;55.818;37.084;2023-06-14T13:28:05;8.00;;;3.95;;
72801;SDS011;61891;55.818;37.084;2023-06-14T13:30:32;5.45;;;3.85;;
72801;SDS011;61891;55.818;37.084;2023-06-14T13:32:58;7.07;;;3.95;;
72801;SDS011;61891;55.818;37.084;2023-06-14T13:35:24;3.70;;;3.40;;
72801;SDS011;61891;55.818;37.084;2023-06-14T13:37:50;4.32;;;3.45;;
72801;SDS011;61891;55.818;37.084;2023-06-14T13:40:16;5.85;;;3.47;;
72801;SDS011;61891;55.818;37.084;2023-06-14T13:42:42;4.97;;;3.33;;
72801;SDS011;61891;55.818;37.084;2023-06-14T13:45:08;3.75;;;3.38;;
72801;SDS011;61891;55.818;37.084;2023-06-14T13:47:36;4.22;;;3.45;;
72801;SDS011;61891;55.818;37.084;2023-06-14T13:50:02;4.35;;;3.95;;
72801;SDS011;61891;55.818;37.084;2023-06-14T13:52:29;4.50;;;3.65;;
72801;SDS011;61891;55.818;37.084;2023-06-14T13:54:55;4.35;;;3.95;;
72801;SDS011;61891;55.818;37.084;2023-06-14T13:57:20;4.07;;;3.63;;
72801;SDS011;61891;55.818;37.084;2023-06-14T13:59:46;6.50;;;4.13;;
72801;SDS011;61891;55.818;37.084;2023-06-14T14:02:12;4.60;;;3.70;;
72801;SDS011;61891;55.818;37.084;2023-06-14T14:04:39;4.07;;;3.60;;
72801;SDS011;61891;55.818;37.084;2023-06-14T14:07:05;4.53;;;4.10;;
72801;SDS011;61891;55.818;37.084;2023-06-14T14:09:32;5.13;;;4.30;;
72801;SDS011;61891;55.818;37.084;2023-06-14T14:11:59;4.90;;;4.18;;
72801;SDS011;61891;55.818;37.084;2023-06-14T14:14:24;5.40;;;3.80;;
72801;SDS011;61891;55.818;37.084;2023-06-14T14:16:51;6.45;;;3.78;;
72801;SDS011;61891;55.818;37.084;2023-06-14T14:19:17;4.90;;;4.15;;
72801;SDS011;61891;55.818;37.084;2023-06-14T14:21:44;5.93;;;4.00;;
72801;SDS011;61891;55.818;37.084;2023-06-14T14:24:10;4.13;;;3.83;;
72801;SDS011;61891;55.818;37.084;2023-06-14T14:26:36;5.43;;;3.90;;
72801;SDS011;61891;55.818;37.084;2023-06-14T14:29:01;4.10;;;3.80;;
72801;SDS011;61891;55.818;37.084;2023-06-14T14:31:30;5.68;;;3.20;;
72801;SDS011;61891;55.818;37.084;2023-06-14T14:33:56;3.47;;;3.05;;
72801;SDS011;61891;55.818;37.084;2023-06-14T14:36:21;5.50;;;2.83;;
72801;SDS011;61891;55.818;37.084;2023-06-14T14:38:47;5.30;;;3.33;;
72801;SDS011;61891;55.818;37.084;2023-06-14T14:41:13;3.15;;;2.95;;
72801;SDS011;61891;55.818;37.084;2023-06-14T14:43:39;4.65;;;3.42;;
72801;SDS011;61891;55.818;37.084;2023-06-14T14:46:05;3.90;;;2.80;;
72801;SDS011;61891;55.818;37.084;2023-06-14T14:48:31;4.65;;;3.15;;
72801;SDS011;61891;55.818;37.084;2023-06-14T14:50:56;3.63;;;2.70;;
72801;SDS011;61891;55.818;37.084;2023-06-14T14:53:22;5.40;;;3.03;;
72801;SDS011;61891;55.818;37.084;2023-06-14T14:55:48;4.15;;;3.00;;
72801;SDS011;61891;55.818;37.084;2023-06-14T14:58:14;4.68;;;3.33;;
72801;SDS011;61891;55.818;37.084;2023-06-14T15:00:46;4.50;;;2.90;;
72801;SDS011;61891;55.818;37.084;2023-06-14T15:03:12;7.05;;;3.25;;
72801;SDS011;61891;55.818;37.084;2023-06-14T15:05:39;10.02;;;3.70;;
72801;SDS011;61891;55.818;37.084;2023-06-14T15:08:05;5.95;;;3.25;;
72801;SDS011;61891;55.818;37.084;2023-06-14T15:10:38;4.07;;;3.05;;
72801;SDS011;61891;55.818;37.084;2023-06-14T15:13:10;4.63;;;3.63;;
72801;SDS011;61891;55.818;37.084;2023-06-14T15:15:36;4.75;;;3.28;;
72801;SDS011;61891;55.818;37.084;2023-06-14T15:18:02;3.47;;;2.58;;
72801;SDS011;61891;55.818;37.084;2023-06-14T15:20:28;4.28;;;3.10;;
72801;SDS011;61891;55.818;37.084;2023-06-14T15:22:54;5.28;;;3.45;;
72801;SDS011;61891;55.818;37.084;2023-06-14T15:25:29;4.55;;;3.78;;
72801;SDS011;61891;55.818;37.084;2023-06-14T15:27:55;5.50;;;3.40;;
72801;SDS011;61891;55.818;37.084;2023-06-14T15:30:21;6.93;;;3.20;;
72801;SDS011;61891;55.818;37.084;2023-06-14T15:32:47;7.63;;;3.50;;
72801;SDS011;61891;55.818;37.084;2023-06-14T15:35:17;3.85;;;3.00;;
72801;SDS011;61891;55.818;37.084;2023-06-14T15:37:47;3.80;;;3.00;;
72801;SDS011;61891;55.818;37.084;2023-06-14T15:40:13;5.80;;;3.33;;